sensor_id;sensor_type;location;lat;lon;timestamp;temperature;humidity
19999;DHT22;10160;50.926;4.374;2023-05-27T00:02:16;14.90;99.90
19999;DHT22;10160;50.926;4.374;2023-05-27T00:04:42;14.90;99.90
19999;DHT22;10160;50.926;4.374;2023-05-27T00:07:07;14.90;99.90
19999;DHT22;10160;50.926;4.374;2023-05-27T00:09:33;14.90;99.90
19999;DHT22;10160;50.926;4.374;2023-05-27T00:11:59;14.80;99.90
19999;DHT22;10160;50.926;4.374;2023-05-27T00:14:26;14.80;99.90
19999;DHT22;10160;50.926;4.374;2023-05-27T00:16:51;14.90;99.90
19999;DHT22;10160;50.926;4.374;2023-05-27T00:19:17;14.80;99.90
19999;DHT22;10160;50.926;4.374;2023-05-27T00:21:43;14.80;99.90
19999;DHT22;10160;50.926;4.374;2023-05-27T00:24:09;14.80;99.90
19999;DHT22;10160;50.926;4.374;2023-05-27T00:26:35;14.80;99.90
19999;DHT22;10160;50.926;4.374;2023-05-27T00:29:01;14.00;99.90
19999;DHT22;10160;50.926;4.374;2023-05-27T00:31:27;13.90;99.90
19999;DHT22;10160;50.926;4.374;2023-05-27T00:33:52;14.00;99.90
19999;DHT22;10160;50.926;4.374;2023-05-27T00:36:18;13.90;99.90
19999;DHT22;10160;50.926;4.374;2023-05-27T00:38:44;14.00;99.90
19999;DHT22;10160;50.926;4.374;2023-05-27T00:41:11;14.10;99.90
19999;DHT22;10160;50.926;4.374;2023-05-27T00:43:37;14.20;99.90
19999;DHT22;10160;50.926;4.374;2023-05-27T00:46:03;14.10;99.90
19999;DHT22;10160;50.926;4.374;2023-05-27T00:48:29;14.00;99.90
19999;DHT22;10160;50.926;4.374;2023-05-27T00:50:55;14.00;99.90
19999;DHT22;10160;50.926;4.374;2023-05-27T00:53:21;14.00;99.90
19999;DHT22;10160;50.926;4.374;2023-05-27T00:55:52;14.00;99.90
19999;DHT22;10160;50.926;4.374;2023-05-27T00:58:18;13.90;99.90
19999;DHT22;10160;50.926;4.374;2023-05-27T01:00:47;14.00;99.90
19999;DHT22;10160;50.926;4.374;2023-05-27T01:03:13;14.00;99.90
19999;DHT22;10160;50.926;4.374;2023-05-27T01:05:40;14.00;99.90
19999;DHT22;10160;50.926;4.374;2023-05-27T01:08:27;14.00;99.90
19999;DHT22;10160;50.926;4.374;2023-05-27T01:10:55;14.10;99.90
19999;DHT22;10160;50.926;4.374;2023-05-27T01:13:45;13.90;99.90
19999;DHT22;10160;50.926;4.374;2023-05-27T01:16:17;13.90;99.90
19999;DHT22;10160;50.926;4.374;2023-05-27T01:18:46;13.90;99.90
19999;DHT22;10160;50.926;4.374;2023-05-27T01:21:15;13.80;99.90
19999;DHT22;10160;50.926;4.374;2023-05-27T01:23:48;13.70;99.90
19999;DHT22;10160;50.926;4.374;2023-05-27T01:26:14;13.80;99.90
19999;DHT22;10160;50.926;4.374;2023-05-27T01:28:40;13.40;99.90
19999;DHT22;10160;50.926;4.374;2023-05-27T01:31:13;13.40;99.90
19999;DHT22;10160;50.926;4.374;2023-05-27T01:33:43;13.40;99.90
19999;DHT22;10160;50.926;4.374;2023-05-27T01:36:19;13.50;99.90
19999;DHT22;10160;50.926;4.374;2023-05-27T01:38:47;13.40;99.90
19999;DHT22;10160;50.926;4.374;2023-05-27T01:41:14;13.40;99.90
19999;DHT22;10160;50.926;4.374;2023-05-27T01:43:41;13.40;99.90
19999;DHT22;10160;50.926;4.374;2023-05-27T01:46:07;13.50;99.90
19999;DHT22;10160;50.926;4.374;2023-05-27T01:48:33;13.60;99.90
19999;DHT22;10160;50.926;4.374;2023-05-27T01:50:59;13.50;99.90
19999;DHT22;10160;50.926;4.374;2023-05-27T01:53:24;13.40;99.90
19999;DHT22;10160;50.926;4.374;2023-05-27T01:55:50;13.30;99.90
19999;DHT22;10160;50.926;4.374;2023-05-27T01:58:16;13.20;99.90
19999;DHT22;10160;50.926;4.374;2023-05-27T02:00:41;13.20;99.90
19999;DHT22;10160;50.926;4.374;2023-05-27T02:03:07;13.30;99.90
19999;DHT22;10160;50.926;4.374;2023-05-27T02:05:33;13.20;99.90
19999;DHT22;10160;50.926;4.374;2023-05-27T02:08:00;13.30;99.90
19999;DHT22;10160;50.926;4.374;2023-05-27T02:10:26;13.30;99.90
19999;DHT22;10160;50.926;4.374;2023-05-27T02:12:51;13.20;99.90
19999;DHT22;10160;50.926;4.374;2023-05-27T02:15:18;13.20;99.90
19999;DHT22;10160;50.926;4.374;2023-05-27T02:17:43;13.20;99.90
19999;DHT22;10160;50.926;4.374;2023-05-27T02:20:11;13.20;99.90
19999;DHT22;10160;50.926;4.374;2023-05-27T02:22:37;13.20;99.90
19999;DHT22;10160;50.926;4.374;2023-05-27T02:25:03;13.30;99.90
19999;DHT22;10160;50.926;4.374;2023-05-27T02:27:29;13.30;99.90
19999;DHT22;10160;50.926;4.374;2023-05-27T02:29:54;13.20;99.90
19999;DHT22;10160;50.926;4.374;2023-05-27T02:32:20;13.20;99.90
19999;DHT22;10160;50.926;4.374;2023-05-27T02:34:46;13.20;99.90
19999;DHT22;10160;50.926;4.374;2023-05-27T02:37:11;13.10;99.90
19999;DHT22;10160;50.926;4.374;2023-05-27T02:39:38;13.10;99.90
19999;DHT22;10160;50.926;4.374;2023-05-27T02:42:04;13.00;99.90
19999;DHT22;10160;50.926;4.374;2023-05-27T02:44:30;12.90;99.90
19999;DHT22;10160;50.926;4.374;2023-05-27T02:46:55;13.00;99.90
19999;DHT22;10160;50.926;4.374;2023-05-27T02:49:21;13.00;99.90
19999;DHT22;10160;50.926;4.374;2023-05-27T02:51:47;13.00;99.90
19999;DHT22;10160;50.926;4.374;2023-05-27T02:54:12;13.00;99.90
19999;DHT22;10160;50.926;4.374;2023-05-27T02:56:38;13.00;99.90
19999;DHT22;10160;50.926;4.374;2023-05-27T02:59:04;13.00;99.90
19999;DHT22;10160;50.926;4.374;2023-05-27T03:01:29;13.00;99.90
19999;DHT22;10160;50.926;4.374;2023-05-27T03:03:55;13.00;99.90
19999;DHT22;10160;50.926;4.374;2023-05-27T03:06:21;12.80;99.90
19999;DHT22;10160;50.926;4.374;2023-05-27T03:08:47;12.80;99.90
19999;DHT22;10160;50.926;4.374;2023-05-27T03:11:13;12.70;99.90
19999;DHT22;10160;50.926;4.374;2023-05-27T03:13:38;12.70;99.90
19999;DHT22;10160;50.926;4.374;2023-05-27T03:16:04;12.50;99.90
19999;DHT22;10160;50.926;4.374;2023-05-27T03:18:31;12.40;99.90
19999;DHT22;10160;50.926;4.374;2023-05-27T03:20:56;12.50;99.90
19999;DHT22;10160;50.926;4.374;2023-05-27T03:23:22;12.40;99.90
19999;DHT22;10160;50.926;4.374;2023-05-27T03:25:47;12.40;99.90
19999;DHT22;10160;50.926;4.374;2023-05-27T03:28:13;12.50;99.90
19999;DHT22;10160;50.926;4.374;2023-05-27T03:30:40;12.30;99.90
19999;DHT22;10160;50.926;4.374;2023-05-27T03:33:08;12.30;99.90
19999;DHT22;10160;50.926;4.374;2023-05-27T03:35:34;12.20;99.90
19999;DHT22;10160;50.926;4.374;2023-05-27T03:38:00;12.20;99.90
19999;DHT22;10160;50.926;4.374;2023-05-27T03:40:25;12.20;99.90
19999;DHT22;10160;50.926;4.374;2023-05-27T03:42:51;12.30;99.90
19999;DHT22;10160;50.926;4.374;2023-05-27T03:45:18;12.20;99.90
19999;DHT22;10160;50.926;4.374;2023-05-27T03:47:43;12.30;99.90
19999;DHT22;10160;50.926;4.374;2023-05-27T03:50:09;12.10;99.90
19999;DHT22;10160;50.926;4.374;2023-05-27T03:52:35;12.10;99.90
19999;DHT22;10160;50.926;4.374;2023-05-27T03:55:01;12.10;99.90
19999;DHT22;10160;50.926;4.374;2023-05-27T03:57:27;12.00;99.90
19999;DHT22;10160;50.926;4.374;2023-05-27T03:59:52;12.00;99.90
19999;DHT22;10160;50.926;4.374;2023-05-27T04:02:18;12.00;99.90
19999;DHT22;10160;50.926;4.374;2023-05-27T04:04:44;11.90;99.90
19999;DHT22;10160;50.926;4.374;2023-05-27T04:07:09;11.80;99.90
19999;DHT22;10160;50.926;4.374;2023-05-27T04:09:35;11.80;99.90
19999;DHT22;10160;50.926;4.374;2023-05-27T04:12:01;11.90;99.90
19999;DHT22;10160;50.926;4.374;2023-05-27T04:14:27;11.90;99.90
19999;DHT22;10160;50.926;4.374;2023-05-27T04:16:53;12.00;99.90
19999;DHT22;10160;50.926;4.374;2023-05-27T04:19:19;12.10;99.90
19999;DHT22;10160;50.926;4.374;2023-05-27T04:21:46;11.90;99.90
19999;DHT22;10160;50.926;4.374;2023-05-27T04:24:12;11.80;99.90
19999;DHT22;10160;50.926;4.374;2023-05-27T04:26:37;11.90;99.90
19999;DHT22;10160;50.926;4.374;2023-05-27T04:29:03;11.90;99.90
19999;DHT22;10160;50.926;4.374;2023-05-27T04:31:29;11.80;99.90
19999;DHT22;10160;50.926;4.374;2023-05-27T04:33:55;11.80;99.90
19999;DHT22;10160;50.926;4.374;2023-05-27T04:36:21;12.00;99.90
19999;DHT22;10160;50.926;4.374;2023-05-27T04:38:51;12.00;99.90
19999;DHT22;10160;50.926;4.374;2023-05-27T04:41:17;12.00;99.90
19999;DHT22;10160;50.926;4.374;2023-05-27T04:43:46;12.10;99.90
19999;DHT22;10160;50.926;4.374;2023-05-27T04:46:13;12.20;99.90
19999;DHT22;10160;50.926;4.374;2023-05-27T04:48:39;12.20;99.90
19999;DHT22;10160;50.926;4.374;2023-05-27T04:51:05;12.20;99.90
19999;DHT22;10160;50.926;4.374;2023-05-27T04:53:30;12.20;99.90
19999;DHT22;10160;50.926;4.374;2023-05-27T04:55:57;12.30;99.90
19999;DHT22;10160;50.926;4.374;2023-05-27T04:58:23;12.30;99.90
19999;DHT22;10160;50.926;4.374;2023-05-27T05:00:49;12.30;99.90
19999;DHT22;10160;50.926;4.374;2023-05-27T05:03:24;11.90;99.90
19999;DHT22;10160;50.926;4.374;2023-05-27T05:06:05;12.00;99.90
19999;DHT22;10160;50.926;4.374;2023-05-27T05:08:31;12.00;99.90
19999;DHT22;10160;50.926;4.374;2023-05-27T05:10:56;12.10;99.90
19999;DHT22;10160;50.926;4.374;2023-05-27T05:13:22;12.10;99.90
19999;DHT22;10160;50.926;4.374;2023-05-27T05:15:48;11.80;99.90
19999;DHT22;10160;50.926;4.374;2023-05-27T05:18:14;12.00;99.90
19999;DHT22;10160;50.926;4.374;2023-05-27T05:20:39;12.00;99.90
19999;DHT22;10160;50.926;4.374;2023-05-27T05:23:09;12.20;99.90
19999;DHT22;10160;50.926;4.374;2023-05-27T05:25:35;12.50;99.90
19999;DHT22;10160;50.926;4.374;2023-05-27T05:28:04;12.60;99.90
19999;DHT22;10160;50.926;4.374;2023-05-27T05:30:30;12.20;99.90
19999;DHT22;10160;50.926;4.374;2023-05-27T05:32:57;12.20;99.90
19999;DHT22;10160;50.926;4.374;2023-05-27T05:35:23;12.10;99.90
19999;DHT22;10160;50.926;4.374;2023-05-27T05:37:48;11.60;99.90
19999;DHT22;10160;50.926;4.374;2023-05-27T05:40:14;11.10;99.90
19999;DHT22;10160;50.926;4.374;2023-05-27T05:42:40;11.20;99.90
19999;DHT22;10160;50.926;4.374;2023-05-27T05:45:06;11.40;99.90
19999;DHT22;10160;50.926;4.374;2023-05-27T05:47:32;11.70;99.90
19999;DHT22;10160;50.926;4.374;2023-05-27T05:49:58;11.30;99.90
19999;DHT22;10160;50.926;4.374;2023-05-27T05:52:24;11.30;99.90
19999;DHT22;10160;50.926;4.374;2023-05-27T05:54:50;11.60;99.90
19999;DHT22;10160;50.926;4.374;2023-05-27T05:57:15;12.00;99.90
19999;DHT22;10160;50.926;4.374;2023-05-27T05:59:41;12.50;99.90
19999;DHT22;10160;50.926;4.374;2023-05-27T06:02:07;12.80;99.90
19999;DHT22;10160;50.926;4.374;2023-05-27T06:04:32;13.10;99.90
19999;DHT22;10160;50.926;4.374;2023-05-27T06:06:58;12.60;99.90
19999;DHT22;10160;50.926;4.374;2023-05-27T06:09:24;12.90;99.90
19999;DHT22;10160;50.926;4.374;2023-05-27T06:11:51;13.00;99.90
19999;DHT22;10160;50.926;4.374;2023-05-27T06:14:17;12.70;99.90
19999;DHT22;10160;50.926;4.374;2023-05-27T06:16:43;12.60;99.90
19999;DHT22;10160;50.926;4.374;2023-05-27T06:19:09;12.80;99.90
19999;DHT22;10160;50.926;4.374;2023-05-27T06:21:34;13.00;99.90
19999;DHT22;10160;50.926;4.374;2023-05-27T06:24:00;12.90;99.90
19999;DHT22;10160;50.926;4.374;2023-05-27T06:26:26;12.40;99.90
19999;DHT22;10160;50.926;4.374;2023-05-27T06:28:54;12.50;99.90
19999;DHT22;10160;50.926;4.374;2023-05-27T06:31:20;12.50;99.90
19999;DHT22;10160;50.926;4.374;2023-05-27T06:33:46;12.90;99.90
19999;DHT22;10160;50.926;4.374;2023-05-27T06:36:11;13.10;99.90
19999;DHT22;10160;50.926;4.374;2023-05-27T06:38:37;13.40;99.90
19999;DHT22;10160;50.926;4.374;2023-05-27T06:41:03;13.70;99.90
19999;DHT22;10160;50.926;4.374;2023-05-27T06:43:29;13.30;99.90
19999;DHT22;10160;50.926;4.374;2023-05-27T06:45:54;12.90;99.90
19999;DHT22;10160;50.926;4.374;2023-05-27T06:48:20;12.60;99.90
19999;DHT22;10160;50.926;4.374;2023-05-27T06:50:46;13.00;99.90
19999;DHT22;10160;50.926;4.374;2023-05-27T06:53:12;13.50;99.90
19999;DHT22;10160;50.926;4.374;2023-05-27T06:55:38;13.30;99.90
19999;DHT22;10160;50.926;4.374;2023-05-27T06:58:04;13.10;99.90
19999;DHT22;10160;50.926;4.374;2023-05-27T07:00:31;13.40;99.90
19999;DHT22;10160;50.926;4.374;2023-05-27T07:02:56;13.70;99.90
19999;DHT22;10160;50.926;4.374;2023-05-27T07:05:22;13.80;99.90
19999;DHT22;10160;50.926;4.374;2023-05-27T07:07:47;14.00;99.90
19999;DHT22;10160;50.926;4.374;2023-05-27T07:10:13;14.30;99.90
19999;DHT22;10160;50.926;4.374;2023-05-27T07:12:39;14.30;99.90
19999;DHT22;10160;50.926;4.374;2023-05-27T07:15:05;14.30;99.90
19999;DHT22;10160;50.926;4.374;2023-05-27T07:17:31;13.90;99.90
19999;DHT22;10160;50.926;4.374;2023-05-27T07:19:57;13.60;99.90
19999;DHT22;10160;50.926;4.374;2023-05-27T07:22:22;13.20;99.90
19999;DHT22;10160;50.926;4.374;2023-05-27T07:24:49;13.30;99.90
19999;DHT22;10160;50.926;4.374;2023-05-27T07:27:15;13.50;99.90
19999;DHT22;10160;50.926;4.374;2023-05-27T07:29:41;13.60;99.90
19999;DHT22;10160;50.926;4.374;2023-05-27T07:32:06;14.10;99.90
19999;DHT22;10160;50.926;4.374;2023-05-27T07:34:32;14.30;99.90
19999;DHT22;10160;50.926;4.374;2023-05-27T07:36:58;14.40;99.90
19999;DHT22;10160;50.926;4.374;2023-05-27T07:39:23;13.70;99.90
19999;DHT22;10160;50.926;4.374;2023-05-27T07:41:49;13.70;99.90
19999;DHT22;10160;50.926;4.374;2023-05-27T07:44:15;13.70;99.90
19999;DHT22;10160;50.926;4.374;2023-05-27T07:46:40;13.90;99.90
19999;DHT22;10160;50.926;4.374;2023-05-27T07:49:07;13.80;99.90
19999;DHT22;10160;50.926;4.374;2023-05-27T07:51:32;14.10;99.90
19999;DHT22;10160;50.926;4.374;2023-05-27T07:53:58;14.30;99.90
19999;DHT22;10160;50.926;4.374;2023-05-27T07:56:24;14.60;99.90
19999;DHT22;10160;50.926;4.374;2023-05-27T07:58:50;14.60;99.90
19999;DHT22;10160;50.926;4.374;2023-05-27T08:01:15;14.60;99.90
19999;DHT22;10160;50.926;4.374;2023-05-27T08:03:41;14.80;99.90
19999;DHT22;10160;50.926;4.374;2023-05-27T08:06:10;15.20;99.90
19999;DHT22;10160;50.926;4.374;2023-05-27T08:08:35;15.40;99.90
19999;DHT22;10160;50.926;4.374;2023-05-27T08:11:01;15.10;99.90
19999;DHT22;10160;50.926;4.374;2023-05-27T08:13:27;15.20;99.90
19999;DHT22;10160;50.926;4.374;2023-05-27T08:15:52;15.40;99.90
19999;DHT22;10160;50.926;4.374;2023-05-27T08:18:18;15.50;99.90
19999;DHT22;10160;50.926;4.374;2023-05-27T08:20:44;15.70;99.90
19999;DHT22;10160;50.926;4.374;2023-05-27T08:23:10;16.20;99.90
19999;DHT22;10160;50.926;4.374;2023-05-27T08:25:35;15.90;99.90
19999;DHT22;10160;50.926;4.374;2023-05-27T08:28:01;16.00;99.90
19999;DHT22;10160;50.926;4.374;2023-05-27T08:30:30;15.70;99.90
19999;DHT22;10160;50.926;4.374;2023-05-27T08:32:56;15.80;99.90
19999;DHT22;10160;50.926;4.374;2023-05-27T08:35:23;15.90;99.90
19999;DHT22;10160;50.926;4.374;2023-05-27T08:37:49;16.20;99.90
19999;DHT22;10160;50.926;4.374;2023-05-27T08:40:16;16.20;99.90
19999;DHT22;10160;50.926;4.374;2023-05-27T08:42:42;16.50;99.90
19999;DHT22;10160;50.926;4.374;2023-05-27T08:45:09;16.90;99.90
19999;DHT22;10160;50.926;4.374;2023-05-27T08:47:35;16.90;99.90
19999;DHT22;10160;50.926;4.374;2023-05-27T08:50:01;17.10;99.90
19999;DHT22;10160;50.926;4.374;2023-05-27T08:52:29;17.30;99.90
19999;DHT22;10160;50.926;4.374;2023-05-27T08:54:57;17.20;99.90
19999;DHT22;10160;50.926;4.374;2023-05-27T08:57:28;16.90;99.90
19999;DHT22;10160;50.926;4.374;2023-05-27T08:59:54;16.40;99.90
19999;DHT22;10160;50.926;4.374;2023-05-27T09:02:21;16.30;99.90
19999;DHT22;10160;50.926;4.374;2023-05-27T09:04:47;16.70;99.90
19999;DHT22;10160;50.926;4.374;2023-05-27T09:07:12;16.70;99.90
19999;DHT22;10160;50.926;4.374;2023-05-27T09:09:41;17.00;99.90
19999;DHT22;10160;50.926;4.374;2023-05-27T09:12:07;17.00;99.90
19999;DHT22;10160;50.926;4.374;2023-05-27T09:14:36;17.20;99.90
19999;DHT22;10160;50.926;4.374;2023-05-27T09:17:08;17.00;99.90
19999;DHT22;10160;50.926;4.374;2023-05-27T09:19:35;16.80;99.90
19999;DHT22;10160;50.926;4.374;2023-05-27T09:22:00;17.00;99.90
19999;DHT22;10160;50.926;4.374;2023-05-27T09:24:26;16.90;99.90
19999;DHT22;10160;50.926;4.374;2023-05-27T09:26:53;17.20;99.90
19999;DHT22;10160;50.926;4.374;2023-05-27T09:29:26;17.30;99.90
19999;DHT22;10160;50.926;4.374;2023-05-27T09:31:55;17.30;99.90
19999;DHT22;10160;50.926;4.374;2023-05-27T09:34:21;17.40;99.90
19999;DHT22;10160;50.926;4.374;2023-05-27T09:36:51;17.80;99.90
19999;DHT22;10160;50.926;4.374;2023-05-27T09:39:18;18.00;99.90
19999;DHT22;10160;50.926;4.374;2023-05-27T09:41:50;17.80;99.90
19999;DHT22;10160;50.926;4.374;2023-05-27T09:44:17;18.00;99.90
19999;DHT22;10160;50.926;4.374;2023-05-27T09:46:44;18.30;99.90
19999;DHT22;10160;50.926;4.374;2023-05-27T09:49:13;18.40;99.90
19999;DHT22;10160;50.926;4.374;2023-05-27T09:51:40;18.70;99.90
19999;DHT22;10160;50.926;4.374;2023-05-27T09:54:08;18.80;99.90
19999;DHT22;10160;50.926;4.374;2023-05-27T09:56:35;18.80;99.90
19999;DHT22;10160;50.926;4.374;2023-05-27T09:59:01;19.30;99.90
19999;DHT22;10160;50.926;4.374;2023-05-27T10:01:28;19.30;99.90
19999;DHT22;10160;50.926;4.374;2023-05-27T10:03:57;19.30;99.90
19999;DHT22;10160;50.926;4.374;2023-05-27T10:06:25;19.10;99.90
19999;DHT22;10160;50.926;4.374;2023-05-27T10:08:52;19.30;99.90
19999;DHT22;10160;50.926;4.374;2023-05-27T10:11:24;19.60;99.90
19999;DHT22;10160;50.926;4.374;2023-05-27T10:13:52;20.10;99.90
19999;DHT22;10160;50.926;4.374;2023-05-27T10:16:27;20.80;99.90
19999;DHT22;10160;50.926;4.374;2023-05-27T10:18:54;20.10;99.90
19999;DHT22;10160;50.926;4.374;2023-05-27T10:21:22;20.30;99.90
19999;DHT22;10160;50.926;4.374;2023-05-27T10:24:10;20.80;99.90
19999;DHT22;10160;50.926;4.374;2023-05-27T10:26:41;20.20;99.90
19999;DHT22;10160;50.926;4.374;2023-05-27T10:29:15;20.20;99.90
19999;DHT22;10160;50.926;4.374;2023-05-27T10:31:49;20.10;99.90
19999;DHT22;10160;50.926;4.374;2023-05-27T10:34:15;20.00;99.90
19999;DHT22;10160;50.926;4.374;2023-05-27T10:36:41;20.20;99.90
19999;DHT22;10160;50.926;4.374;2023-05-27T10:39:18;20.10;99.90
19999;DHT22;10160;50.926;4.374;2023-05-27T10:41:53;20.60;99.90
19999;DHT22;10160;50.926;4.374;2023-05-27T10:44:45;20.70;99.90
19999;DHT22;10160;50.926;4.374;2023-05-27T10:47:12;20.20;99.90
19999;DHT22;10160;50.926;4.374;2023-05-27T10:49:46;20.70;99.90
19999;DHT22;10160;50.926;4.374;2023-05-27T10:52:16;21.40;99.90
19999;DHT22;10160;50.926;4.374;2023-05-27T10:57:10;22.00;99.90
19999;DHT22;10160;50.926;4.374;2023-05-27T10:59:47;21.80;99.90
19999;DHT22;10160;50.926;4.374;2023-05-27T11:02:14;21.70;99.90
19999;DHT22;10160;50.926;4.374;2023-05-27T11:04:39;21.60;99.90
19999;DHT22;10160;50.926;4.374;2023-05-27T11:07:06;22.10;99.90
19999;DHT22;10160;50.926;4.374;2023-05-27T11:09:43;23.00;99.90
19999;DHT22;10160;50.926;4.374;2023-05-27T11:12:12;22.20;99.90
19999;DHT22;10160;50.926;4.374;2023-05-27T11:14:38;22.40;99.90
19999;DHT22;10160;50.926;4.374;2023-05-27T11:17:03;23.30;99.90
19999;DHT22;10160;50.926;4.374;2023-05-27T11:19:29;23.20;99.90
19999;DHT22;10160;50.926;4.374;2023-05-27T11:21:55;23.70;99.90
19999;DHT22;10160;50.926;4.374;2023-05-27T11:24:21;24.40;99.90
19999;DHT22;10160;50.926;4.374;2023-05-27T11:26:47;25.00;99.90
19999;DHT22;10160;50.926;4.374;2023-05-27T11:29:14;25.40;99.90
19999;DHT22;10160;50.926;4.374;2023-05-27T11:31:40;23.70;99.90
19999;DHT22;10160;50.926;4.374;2023-05-27T11:34:13;23.10;99.90
19999;DHT22;10160;50.926;4.374;2023-05-27T11:36:39;22.60;99.90
19999;DHT22;10160;50.926;4.374;2023-05-27T11:39:05;23.30;99.90
19999;DHT22;10160;50.926;4.374;2023-05-27T11:41:32;23.70;99.90
19999;DHT22;10160;50.926;4.374;2023-05-27T11:44:00;24.40;99.90
19999;DHT22;10160;50.926;4.374;2023-05-27T11:46:42;24.10;99.90
19999;DHT22;10160;50.926;4.374;2023-05-27T11:49:12;24.50;99.90
19999;DHT22;10160;50.926;4.374;2023-05-27T11:51:40;25.40;99.90
19999;DHT22;10160;50.926;4.374;2023-05-27T11:54:07;25.50;99.90
19999;DHT22;10160;50.926;4.374;2023-05-27T11:56:32;25.30;99.90
19999;DHT22;10160;50.926;4.374;2023-05-27T11:58:59;24.80;99.90
19999;DHT22;10160;50.926;4.374;2023-05-27T12:01:24;25.20;99.90
19999;DHT22;10160;50.926;4.374;2023-05-27T12:03:51;25.70;99.90
19999;DHT22;10160;50.926;4.374;2023-05-27T12:06:17;24.90;99.90
19999;DHT22;10160;50.926;4.374;2023-05-27T12:08:43;25.30;99.90
19999;DHT22;10160;50.926;4.374;2023-05-27T12:11:09;25.20;99.90
19999;DHT22;10160;50.926;4.374;2023-05-27T12:13:35;25.00;99.90
19999;DHT22;10160;50.926;4.374;2023-05-27T12:16:00;25.70;99.90
19999;DHT22;10160;50.926;4.374;2023-05-27T12:18:28;25.60;99.90
19999;DHT22;10160;50.926;4.374;2023-05-27T12:20:55;25.90;99.90
19999;DHT22;10160;50.926;4.374;2023-05-27T12:23:21;25.40;99.90
19999;DHT22;10160;50.926;4.374;2023-05-27T12:25:46;24.60;99.90
19999;DHT22;10160;50.926;4.374;2023-05-27T12:28:12;23.30;99.90
19999;DHT22;10160;50.926;4.374;2023-05-27T12:30:38;23.70;99.90
19999;DHT22;10160;50.926;4.374;2023-05-27T12:33:04;24.30;99.90
19999;DHT22;10160;50.926;4.374;2023-05-27T12:35:30;25.30;99.90
19999;DHT22;10160;50.926;4.374;2023-05-27T12:37:57;26.20;99.90
19999;DHT22;10160;50.926;4.374;2023-05-27T12:40:23;26.40;99.90
19999;DHT22;10160;50.926;4.374;2023-05-27T12:42:49;25.80;97.60
19999;DHT22;10160;50.926;4.374;2023-05-27T12:45:15;24.90;99.40
19999;DHT22;10160;50.926;4.374;2023-05-27T12:47:41;24.40;99.90
19999;DHT22;10160;50.926;4.374;2023-05-27T12:50:07;24.30;99.90
19999;DHT22;10160;50.926;4.374;2023-05-27T12:52:33;24.40;99.90
19999;DHT22;10160;50.926;4.374;2023-05-27T12:54:59;24.60;99.90
19999;DHT22;10160;50.926;4.374;2023-05-27T12:57:25;25.30;99.90
19999;DHT22;10160;50.926;4.374;2023-05-27T12:59:51;26.10;99.90
19999;DHT22;10160;50.926;4.374;2023-05-27T13:02:17;26.20;99.90
19999;DHT22;10160;50.926;4.374;2023-05-27T13:04:43;26.80;99.90
19999;DHT22;10160;50.926;4.374;2023-05-27T13:07:10;26.90;99.10
19999;DHT22;10160;50.926;4.374;2023-05-27T13:09:37;27.20;99.10
19999;DHT22;10160;50.926;4.374;2023-05-27T13:12:03;27.60;97.00
19999;DHT22;10160;50.926;4.374;2023-05-27T13:14:29;27.60;93.30
19999;DHT22;10160;50.926;4.374;2023-05-27T13:16:55;27.60;97.80
19999;DHT22;10160;50.926;4.374;2023-05-27T13:19:21;26.80;94.20
19999;DHT22;10160;50.926;4.374;2023-05-27T13:21:47;25.60;95.30
19999;DHT22;10160;50.926;4.374;2023-05-27T13:24:14;25.30;98.70
19999;DHT22;10160;50.926;4.374;2023-05-27T13:26:40;24.90;96.80
19999;DHT22;10160;50.926;4.374;2023-05-27T13:29:05;24.40;96.30
19999;DHT22;10160;50.926;4.374;2023-05-27T13:31:31;24.50;98.80
19999;DHT22;10160;50.926;4.374;2023-05-27T13:33:57;24.60;98.00
19999;DHT22;10160;50.926;4.374;2023-05-27T13:36:23;24.90;98.80
19999;DHT22;10160;50.926;4.374;2023-05-27T13:38:49;25.80;99.90
19999;DHT22;10160;50.926;4.374;2023-05-27T13:41:14;26.30;99.00
19999;DHT22;10160;50.926;4.374;2023-05-27T13:43:40;26.70;97.40
19999;DHT22;10160;50.926;4.374;2023-05-27T13:46:06;26.70;95.60
19999;DHT22;10160;50.926;4.374;2023-05-27T13:48:32;27.30;97.20
19999;DHT22;10160;50.926;4.374;2023-05-27T13:50:57;26.60;95.30
19999;DHT22;10160;50.926;4.374;2023-05-27T13:53:23;25.90;96.80
19999;DHT22;10160;50.926;4.374;2023-05-27T13:55:49;26.40;95.30
19999;DHT22;10160;50.926;4.374;2023-05-27T13:58:15;25.80;95.20
19999;DHT22;10160;50.926;4.374;2023-05-27T14:00:42;24.70;95.10
19999;DHT22;10160;50.926;4.374;2023-05-27T14:03:07;24.70;95.70
19999;DHT22;10160;50.926;4.374;2023-05-27T14:05:33;25.00;97.00
19999;DHT22;10160;50.926;4.374;2023-05-27T14:08:01;24.90;94.90
19999;DHT22;10160;50.926;4.374;2023-05-27T14:10:31;24.70;96.20
19999;DHT22;10160;50.926;4.374;2023-05-27T14:12:57;25.00;98.90
19999;DHT22;10160;50.926;4.374;2023-05-27T14:15:23;25.90;97.50
19999;DHT22;10160;50.926;4.374;2023-05-27T14:17:53;26.40;96.40
19999;DHT22;10160;50.926;4.374;2023-05-27T14:20:18;25.50;92.90
19999;DHT22;10160;50.926;4.374;2023-05-27T14:22:45;25.70;94.60
19999;DHT22;10160;50.926;4.374;2023-05-27T14:25:10;25.60;97.20
19999;DHT22;10160;50.926;4.374;2023-05-27T14:27:36;25.10;93.90
19999;DHT22;10160;50.926;4.374;2023-05-27T14:30:02;24.60;97.20
19999;DHT22;10160;50.926;4.374;2023-05-27T14:32:28;24.90;95.30
19999;DHT22;10160;50.926;4.374;2023-05-27T14:34:53;25.80;97.80
19999;DHT22;10160;50.926;4.374;2023-05-27T14:37:21;25.80;92.90
19999;DHT22;10160;50.926;4.374;2023-05-27T14:39:47;25.60;94.80
19999;DHT22;10160;50.926;4.374;2023-05-27T14:42:13;25.80;92.40
19999;DHT22;10160;50.926;4.374;2023-05-27T14:44:38;24.50;92.90
19999;DHT22;10160;50.926;4.374;2023-05-27T14:47:04;24.40;94.00
19999;DHT22;10160;50.926;4.374;2023-05-27T14:49:30;24.70;95.20
19999;DHT22;10160;50.926;4.374;2023-05-27T14:51:57;25.20;94.00
19999;DHT22;10160;50.926;4.374;2023-05-27T14:54:23;25.10;94.00
19999;DHT22;10160;50.926;4.374;2023-05-27T14:56:48;25.40;93.40
19999;DHT22;10160;50.926;4.374;2023-05-27T14:59:14;25.60;94.80
19999;DHT22;10160;50.926;4.374;2023-05-27T15:01:40;25.30;91.80
19999;DHT22;10160;50.926;4.374;2023-05-27T15:04:05;24.90;93.70
19999;DHT22;10160;50.926;4.374;2023-05-27T15:06:31;25.10;94.40
19999;DHT22;10160;50.926;4.374;2023-05-27T15:08:57;24.50;93.00
19999;DHT22;10160;50.926;4.374;2023-05-27T15:11:23;24.40;92.50
19999;DHT22;10160;50.926;4.374;2023-05-27T15:13:49;24.10;92.50
19999;DHT22;10160;50.926;4.374;2023-05-27T15:16:15;23.80;93.80
19999;DHT22;10160;50.926;4.374;2023-05-27T15:18:40;24.20;95.40
19999;DHT22;10160;50.926;4.374;2023-05-27T15:21:06;24.70;93.40
19999;DHT22;10160;50.926;4.374;2023-05-27T15:23:33;25.00;92.00
19999;DHT22;10160;50.926;4.374;2023-05-27T15:25:58;24.90;91.50
19999;DHT22;10160;50.926;4.374;2023-05-27T15:28:24;24.80;93.40
19999;DHT22;10160;50.926;4.374;2023-05-27T15:30:50;24.60;94.40